createdAt,value
2019-05-01T00:01:02.677Z,24.40
2019-05-01T00:03:32.913Z,23.57
2019-05-01T00:06:02.995Z,21.80
2019-05-01T00:08:31.510Z,23.03
2019-05-01T00:11:00.075Z,21.47
2019-05-01T00:13:28.827Z,23.67
2019-05-01T00:15:57.407Z,23.67
2019-05-01T00:18:25.947Z,21.60
2019-05-01T00:20:54.571Z,25.10
2019-05-01T00:23:23.044Z,23.87
2019-05-01T00:25:51.553Z,24.33
2019-05-01T00:28:20.175Z,22.93
2019-05-01T00:30:48.638Z,23.37
2019-05-01T00:33:17.113Z,23.53
2019-05-01T00:35:45.588Z,22.30
2019-05-01T00:38:14.145Z,24.73
2019-05-01T00:40:42.662Z,23.03
2019-05-01T00:43:11.170Z,20.47
2019-05-01T00:45:39.627Z,22.33
2019-05-01T00:48:08.102Z,21.33
2019-05-01T00:50:36.582Z,24.70
2019-05-01T00:53:05.260Z,23.03
2019-05-01T00:55:41.310Z,21.93
2019-05-01T00:58:17.237Z,21.30
2019-05-01T01:00:50.193Z,22.27
2019-05-01T01:03:18.820Z,19.13
2019-05-01T01:05:47.301Z,21.83
2019-05-01T01:08:16.045Z,24.33
2019-05-01T01:10:44.617Z,23.40
2019-05-01T01:13:13.162Z,23.70
2019-05-01T01:15:41.715Z,23.77
2019-05-01T01:18:10.346Z,25.37
2019-05-01T01:20:38.976Z,22.90
2019-05-01T01:23:07.656Z,23.53
2019-05-01T01:25:36.279Z,26.07
2019-05-01T01:28:04.996Z,24.40
2019-05-01T01:30:33.548Z,24.30
2019-05-01T01:33:02.073Z,24.47
2019-05-01T01:35:30.560Z,25.53
2019-05-01T01:37:59.027Z,25.87
2019-05-01T01:40:27.588Z,26.20
2019-05-01T01:42:58.007Z,27.20
2019-05-01T01:45:44.679Z,28.17
2019-05-01T01:48:17.436Z,26.27
2019-05-01T01:50:46.746Z,28.50
2019-05-01T01:53:18.589Z,29.13
2019-05-01T01:55:47.809Z,29.50
2019-05-01T01:58:17.523Z,27.40
2019-05-01T02:00:47.859Z,27.50
2019-05-01T02:03:16.562Z,28.77
2019-05-01T02:05:45.182Z,28.60
2019-05-01T02:08:13.877Z,26.97
2019-05-01T02:10:43.322Z,27.77
2019-05-01T02:13:12.079Z,26.63
2019-05-01T02:15:40.642Z,27.40
2019-05-01T02:18:09.169Z,26.67
2019-05-01T02:20:37.806Z,25.43
2019-05-01T02:23:06.261Z,24.67
2019-05-01T02:25:36.859Z,24.17
2019-05-01T02:28:25.081Z,24.50
2019-05-01T02:31:07.211Z,23.73
2019-05-01T02:33:37.289Z,23.90
2019-05-01T02:36:07.612Z,22.30
2019-05-01T02:38:37.805Z,22.70
2019-05-01T02:41:09.031Z,22.73
2019-05-01T02:43:38.842Z,23.90
2019-05-01T02:46:10.475Z,22.13
2019-05-01T02:48:58.295Z,22.30
2019-05-01T02:51:27.427Z,20.97
2019-05-01T02:53:56.535Z,21.43
2019-05-01T02:56:33.067Z,20.27
2019-05-01T02:59:03.952Z,21.10
2019-05-01T03:01:46.346Z,21.43
2019-05-01T03:04:04.506Z,20.47
2019-05-01T03:06:34.392Z,20.40
2019-05-01T03:09:06.718Z,21.17
2019-05-01T03:11:36.792Z,21.20
2019-05-01T03:14:07.022Z,20.60
2019-05-01T03:16:36.303Z,20.27
2019-05-01T03:19:24.051Z,20.60
2019-05-01T03:21:54.303Z,19.97
2019-05-01T03:24:24.438Z,20.50
2019-05-01T03:26:53.887Z,19.60
2019-05-01T03:29:23.045Z,20.23
2019-05-01T03:32:14.161Z,19.30
2019-05-01T03:34:22.032Z,20.10
2019-05-01T03:36:50.701Z,20.87
2019-05-01T03:39:19.431Z,19.93
2019-05-01T03:41:48.517Z,20.97
2019-05-01T03:44:17.440Z,21.07
2019-05-01T03:46:46.327Z,21.87
2019-05-01T03:49:15.126Z,21.50
2019-05-01T03:51:44.250Z,22.03
2019-05-01T03:54:13.061Z,21.67
2019-05-01T03:56:41.888Z,22.50
2019-05-01T03:59:10.768Z,21.10
2019-05-01T04:01:41.101Z,22.83
2019-05-01T04:04:14.514Z,23.07
2019-05-01T04:06:43.265Z,23.80
2019-05-01T04:09:11.950Z,22.43
2019-05-01T04:11:40.689Z,23.70
2019-05-01T04:14:09.559Z,21.97
2019-05-01T04:16:39.079Z,23.53
2019-05-01T04:19:07.637Z,23.10
2019-05-01T04:21:38.106Z,23.40
2019-05-01T04:24:06.782Z,22.30
2019-05-01T04:26:35.324Z,21.83
2019-05-01T04:29:08.733Z,24.10
2019-05-01T04:31:50.751Z,22.00
2019-05-01T04:34:21.010Z,22.27
2019-05-01T04:37:06.375Z,22.90
2019-05-01T04:39:35.054Z,22.73
2019-05-01T04:42:03.668Z,23.23
2019-05-01T04:44:32.216Z,22.33
2019-05-01T04:47:01.084Z,22.17
2019-05-01T04:49:29.905Z,22.17
2019-05-01T04:51:58.446Z,21.40
2019-05-01T04:54:27.242Z,22.90
2019-05-01T04:56:56.341Z,24.83
2019-05-01T04:59:25.068Z,23.63
2019-05-01T05:02:01.467Z,21.77
2019-05-01T05:04:30.370Z,23.07
2019-05-01T05:06:59.085Z,23.87
2019-05-01T05:09:47.197Z,24.90
2019-05-01T05:12:17.909Z,23.33
2019-05-01T05:14:54.242Z,24.87
2019-05-01T05:17:26.738Z,23.03
2019-05-01T05:19:56.049Z,24.37
2019-05-01T05:22:25.253Z,24.90
2019-05-01T05:24:54.441Z,25.07
2019-05-01T05:27:24.781Z,23.57
2019-05-01T05:29:56.387Z,25.10
2019-05-01T05:32:26.459Z,25.13
2019-05-01T05:34:57.783Z,26.03
2019-05-01T05:37:32.842Z,24.50
2019-05-01T05:40:02.098Z,24.87
2019-05-01T05:42:30.926Z,24.20
2019-05-01T05:44:59.718Z,23.67
2019-05-01T05:47:28.854Z,23.60
2019-05-01T05:49:57.663Z,23.60
2019-05-01T05:52:40.819Z,24.43
2019-05-01T05:55:16.610Z,23.80
2019-05-01T05:57:56.161Z,24.37
2019-05-01T06:00:27.590Z,23.43
2019-05-01T06:03:03.627Z,23.70
2019-05-01T06:05:36.696Z,24.03
2019-05-01T06:08:14.747Z,22.93
2019-05-01T06:10:58.489Z,21.53
2019-05-01T06:13:28.370Z,21.67
2019-05-01T06:16:04.306Z,22.77
2019-05-01T06:18:39.376Z,23.83
2019-05-01T06:21:09.469Z,22.80
2019-05-01T06:23:52.688Z,22.10
2019-05-01T06:26:31.894Z,22.50
2019-05-01T06:29:02.459Z,21.87
2019-05-01T06:31:31.552Z,22.47
2019-05-01T06:34:00.742Z,23.60
2019-05-01T06:36:29.538Z,22.00
2019-05-01T06:38:58.216Z,23.60
2019-05-01T06:41:28.681Z,23.50
2019-05-01T06:44:02.398Z,23.03
2019-05-01T06:46:35.433Z,39.17
2019-05-01T06:49:08.611Z,23.13
2019-05-01T06:51:42.167Z,23.60
2019-05-01T06:54:16.216Z,23.47
2019-05-01T06:56:44.783Z,23.50
2019-05-01T06:59:14.963Z,23.63
2019-05-01T07:01:44.398Z,22.63
2019-05-01T07:04:14.230Z,23.07
2019-05-01T07:06:43.109Z,22.53
2019-05-01T07:09:13.046Z,24.43
2019-05-01T07:11:47.507Z,22.80
2019-05-01T07:14:16.077Z,21.77
2019-05-01T07:16:43.409Z,22.27
2019-05-01T07:19:12.313Z,23.33
2019-05-01T07:21:41.022Z,24.07
2019-05-01T07:24:09.653Z,22.33
2019-05-01T07:26:38.190Z,33.23
2019-05-01T07:29:09.897Z,21.00
2019-05-01T07:31:38.893Z,23.00
2019-05-01T07:34:16.364Z,22.90
2019-05-01T07:36:38.155Z,23.17
2019-05-01T07:39:09.848Z,23.33
2019-05-01T07:41:38.939Z,23.30
2019-05-01T07:44:09.245Z,20.97
2019-05-01T07:46:39.366Z,22.23
2019-05-01T07:49:08.366Z,21.90
2019-05-01T07:51:42.326Z,21.57
2019-05-01T07:54:09.351Z,28.57
2019-05-01T07:56:38.723Z,22.33
2019-05-01T07:59:07.363Z,22.20
2019-05-01T08:01:37.606Z,22.60
2019-05-01T08:04:06.172Z,23.43
2019-05-01T08:06:34.710Z,25.20
2019-05-01T08:09:04.944Z,24.07
2019-05-01T08:11:33.414Z,23.23
2019-05-01T08:14:07.660Z,22.90
2019-05-01T08:16:32.295Z,24.00
2019-05-01T08:19:04.103Z,25.03
2019-05-01T08:21:40.237Z,27.37
2019-05-01T08:24:08.904Z,27.40
2019-05-01T08:26:39.783Z,27.63
2019-05-01T08:29:25.297Z,28.23
2019-05-01T08:32:03.413Z,27.50
2019-05-01T08:34:32.846Z,28.13
2019-05-01T08:37:01.315Z,30.73
2019-05-01T08:39:29.790Z,30.40
2019-05-01T08:41:58.386Z,30.63
2019-05-01T08:44:29.517Z,32.57
2019-05-01T08:47:00.387Z,34.00
2019-05-01T08:49:36.246Z,32.63
2019-05-01T08:52:11.247Z,32.77
2019-05-01T08:54:35.087Z,32.10
2019-05-01T08:57:03.734Z,32.30
2019-05-01T08:59:32.231Z,32.90
2019-05-01T09:02:09.165Z,31.90
2019-05-01T09:04:32.367Z,36.37
2019-05-01T09:07:01.019Z,31.97
2019-05-01T09:09:29.567Z,33.97
2019-05-01T09:11:58.038Z,33.23
2019-05-01T09:14:29.795Z,31.63
2019-05-01T09:16:56.790Z,30.97
2019-05-01T09:19:25.269Z,32.83
2019-05-01T09:21:53.805Z,32.03
2019-05-01T09:24:23.180Z,30.67
2019-05-01T09:26:59.671Z,31.63
2019-05-01T09:29:38.629Z,31.77
2019-05-01T09:32:10.136Z,31.63
2019-05-01T09:34:37.700Z,32.00
2019-05-01T09:37:06.260Z,32.50
2019-05-01T09:39:35.450Z,41.77
2019-05-01T09:42:06.546Z,30.00
2019-05-01T09:44:34.453Z,28.73
2019-05-01T09:47:03.065Z,29.47
2019-05-01T09:49:31.545Z,28.73
2019-05-01T09:52:23.362Z,28.47
2019-05-01T09:54:51.849Z,28.37
2019-05-01T09:57:20.548Z,28.00
2019-05-01T09:59:49.019Z,28.10
2019-05-01T10:02:17.521Z,28.50
2019-05-01T10:04:46.063Z,26.80
2019-05-01T10:07:14.557Z,23.00
2019-05-01T10:09:47.139Z,22.10
2019-05-01T10:12:13.324Z,25.27
2019-05-01T10:14:41.872Z,28.70
2019-05-01T10:17:13.309Z,20.67
2019-05-01T10:19:40.698Z,23.45
2019-05-01T10:22:09.188Z,22.13
2019-05-01T10:24:39.295Z,22.03
2019-05-01T10:27:09.597Z,23.30
2019-05-01T10:30:01.622Z,20.20
2019-05-01T10:32:29.437Z,20.10
2019-05-01T10:35:02.284Z,22.70
2019-05-01T10:37:33.755Z,21.97
2019-05-01T10:40:01.090Z,22.40
2019-05-01T10:42:29.647Z,21.47
2019-05-01T10:44:58.124Z,22.80
2019-05-01T10:47:26.693Z,23.03
2019-05-01T10:49:55.227Z,22.10
2019-05-01T10:52:23.793Z,21.33
2019-05-01T10:54:52.264Z,22.17
2019-05-01T10:57:20.821Z,21.87
2019-05-01T10:59:49.384Z,22.03
2019-05-01T11:02:19.225Z,20.93
2019-05-01T11:04:47.851Z,22.10
2019-05-01T11:07:16.326Z,21.90
2019-05-01T11:09:44.901Z,20.70
2019-05-01T11:12:13.443Z,21.20
2019-05-01T11:14:41.936Z,19.37
2019-05-01T11:17:10.409Z,18.50
2019-05-01T11:19:38.960Z,16.97
2019-05-01T11:22:07.504Z,16.40
2019-05-01T11:24:36.139Z,17.17
2019-05-01T11:27:04.673Z,17.03
2019-05-01T11:29:33.169Z,17.83
2019-05-01T11:32:14.797Z,17.13
2019-05-01T11:34:56.546Z,17.17
2019-05-01T11:37:41.760Z,16.33
2019-05-01T11:40:12.528Z,17.23
2019-05-01T11:42:40.998Z,16.83
2019-05-01T11:45:10.135Z,16.97
2019-05-01T11:47:38.615Z,17.33
2019-05-01T11:50:07.639Z,15.93
2019-05-01T11:52:36.100Z,16.13
2019-05-01T11:55:05.730Z,17.00
2019-05-01T11:57:34.281Z,16.73
2019-05-01T12:00:02.862Z,18.05
2019-05-01T12:02:31.415Z,18.57
2019-05-01T12:04:59.932Z,19.30
2019-05-01T12:07:28.423Z,18.53
2019-05-01T12:09:56.985Z,18.80
2019-05-01T12:12:27.227Z,16.23
2019-05-01T12:14:55.741Z,14.33
2019-05-01T12:17:28.574Z,14.97
2019-05-01T12:19:57.155Z,15.03
2019-05-01T12:22:25.833Z,14.77
2019-05-01T12:24:54.493Z,15.20
2019-05-01T12:27:23.026Z,14.23
2019-05-01T12:29:51.578Z,14.90
2019-05-01T12:32:20.135Z,15.77
2019-05-01T12:34:48.633Z,13.57
2019-05-01T12:37:34.490Z,10.23
2019-05-01T12:40:03.651Z,10.07
2019-05-01T12:42:33.656Z,10.93
2019-05-01T12:45:02.198Z,10.33
2019-05-01T12:47:32.324Z,11.63
2019-05-01T12:50:00.885Z,10.63
2019-05-01T12:52:45.874Z,10.63
2019-05-01T12:55:32.947Z,11.53
2019-05-01T12:58:10.235Z,11.03
2019-05-01T13:00:43.627Z,9.43
2019-05-01T13:03:12.287Z,9.63
2019-05-01T13:05:41.065Z,8.87
2019-05-01T13:08:09.559Z,9.63
2019-05-01T13:10:38.112Z,10.20
2019-05-01T13:13:06.743Z,10.17
2019-05-01T13:15:35.224Z,10.43
2019-05-01T13:18:04.044Z,10.83
2019-05-01T13:20:32.597Z,9.73
2019-05-01T13:23:01.156Z,10.30
2019-05-01T13:25:29.695Z,10.63
2019-05-01T13:27:59.824Z,16.93
2019-05-01T13:30:35.455Z,10.77
2019-05-01T13:33:04.330Z,11.70
2019-05-01T13:35:32.805Z,11.30
2019-05-01T13:38:01.398Z,11.10
2019-05-01T13:40:30.010Z,11.07
2019-05-01T13:42:58.508Z,12.33
2019-05-01T13:45:27.060Z,11.63
2019-05-01T13:47:55.626Z,11.27
2019-05-01T13:50:24.548Z,11.20
2019-05-01T13:52:53.022Z,11.13
2019-05-01T13:55:21.500Z,10.80
2019-05-01T13:57:49.969Z,11.73
2019-05-01T14:00:19.262Z,12.33
2019-05-01T14:02:47.842Z,11.13
2019-05-01T14:05:16.544Z,9.60
2019-05-01T14:07:45.011Z,9.77
2019-05-01T14:10:13.758Z,9.73
2019-05-01T14:12:42.278Z,9.40
2019-05-01T14:15:10.904Z,9.13
2019-05-01T14:17:39.525Z,8.17
2019-05-01T14:20:10.157Z,8.37
2019-05-01T14:22:42.737Z,8.70
2019-05-01T14:25:12.998Z,8.87
2019-05-01T14:27:41.549Z,9.43
2019-05-01T14:30:10.754Z,8.80
2019-05-01T14:32:39.289Z,8.10
2019-05-01T14:35:09.879Z,8.97
2019-05-01T14:37:38.419Z,8.67
2019-05-01T14:40:07.653Z,7.87
2019-05-01T14:42:36.195Z,8.50
2019-05-01T14:45:07.747Z,8.13
2019-05-01T14:47:36.280Z,7.27
2019-05-01T14:50:06.819Z,8.07
2019-05-01T14:52:35.501Z,8.07
2019-05-01T14:55:06.201Z,8.07
2019-05-01T14:57:34.804Z,8.37
2019-05-01T15:00:05.325Z,8.73
2019-05-01T15:02:33.795Z,9.17
2019-05-01T15:05:02.283Z,8.97
2019-05-01T15:07:42.647Z,9.23
2019-05-01T15:10:01.216Z,9.23
2019-05-01T15:12:29.743Z,8.07
2019-05-01T15:14:59.943Z,8.60
2019-05-01T15:17:33.099Z,8.90
2019-05-01T15:20:05.053Z,7.70
2019-05-01T15:22:33.511Z,7.90
2019-05-01T15:25:01.984Z,7.30
2019-05-01T15:27:30.645Z,7.50
2019-05-01T15:29:59.112Z,7.10
2019-05-01T15:32:27.610Z,7.33
2019-05-01T15:34:56.153Z,7.97
2019-05-01T15:37:24.637Z,6.60
2019-05-01T15:40:00.854Z,6.37
2019-05-01T15:42:33.841Z,7.00
2019-05-01T15:45:02.391Z,7.47
2019-05-01T15:47:30.946Z,6.80
2019-05-01T15:49:59.418Z,7.20
2019-05-01T15:52:27.962Z,6.93
2019-05-01T15:54:56.500Z,7.13
2019-05-01T15:57:24.992Z,6.67
2019-05-01T15:59:53.462Z,7.27
2019-05-01T16:02:21.999Z,7.20
2019-05-01T16:04:50.493Z,7.43
2019-05-01T16:07:19.017Z,7.27
2019-05-01T16:09:47.493Z,7.00
2019-05-01T16:12:26.507Z,7.43
2019-05-01T16:14:55.064Z,6.90
2019-05-01T16:17:23.569Z,6.30
2019-05-01T16:19:52.130Z,6.97
2019-05-01T16:22:20.672Z,6.47
2019-05-01T16:24:49.145Z,6.63
2019-05-01T16:27:17.703Z,6.83
2019-05-01T16:29:46.247Z,7.60
2019-05-01T16:32:14.798Z,6.80
2019-05-01T16:34:43.285Z,7.00
2019-05-01T16:37:11.772Z,7.57
2019-05-01T16:39:53.535Z,7.23
2019-05-01T16:42:22.675Z,7.33
2019-05-01T16:44:51.259Z,7.73
2019-05-01T16:47:19.775Z,7.40
2019-05-01T16:49:48.368Z,8.40
2019-05-01T16:52:18.619Z,7.63
2019-05-01T16:54:58.772Z,8.47
2019-05-01T16:57:17.627Z,8.10
2019-05-01T16:59:46.199Z,7.97
2019-05-01T17:02:19.105Z,8.50
2019-05-01T17:04:51.953Z,8.17
2019-05-01T17:07:25.080Z,8.13
2019-05-01T17:09:58.055Z,8.60
2019-05-01T17:12:28.663Z,8.43
2019-05-01T17:14:57.151Z,8.60
2019-05-01T17:17:26.502Z,8.10
2019-05-01T17:19:55.059Z,8.87
2019-05-01T17:22:23.534Z,8.30
2019-05-01T17:24:52.093Z,9.10
2019-05-01T17:27:20.631Z,8.17
2019-05-01T17:29:49.211Z,9.27
2019-05-01T17:32:18.678Z,9.50
2019-05-01T17:34:47.174Z,9.80
2019-05-01T17:37:15.651Z,10.10
2019-05-01T17:39:44.276Z,10.67
2019-05-01T17:42:12.769Z,11.07
2019-05-01T17:44:41.341Z,10.93
2019-05-01T17:47:09.883Z,11.20
2019-05-01T17:49:41.131Z,11.03
2019-05-01T17:52:08.656Z,10.87
2019-05-01T17:54:37.202Z,11.03
2019-05-01T17:57:05.705Z,12.27
2019-05-01T17:59:34.260Z,13.50
2019-05-01T18:02:20.599Z,11.90
2019-05-01T18:04:53.426Z,11.30
2019-05-01T18:07:21.962Z,11.80
2019-05-01T18:09:51.477Z,11.20
2019-05-01T18:12:23.428Z,12.30
2019-05-01T18:14:51.094Z,11.53
2019-05-01T18:17:19.753Z,11.60
2019-05-01T18:19:48.300Z,11.53
2019-05-01T18:22:32.265Z,11.27
2019-05-01T18:25:17.853Z,12.07
2019-05-01T18:27:49.859Z,12.27
2019-05-01T18:30:20.650Z,11.57
2019-05-01T18:32:52.323Z,12.60
2019-05-01T18:35:19.122Z,13.63
2019-05-01T18:37:49.343Z,13.53
2019-05-01T18:40:25.747Z,13.70
2019-05-01T18:42:54.339Z,14.07
2019-05-01T18:45:48.835Z,14.73
2019-05-01T18:48:17.697Z,13.90
2019-05-01T18:50:49.524Z,13.20
2019-05-01T18:53:16.576Z,13.17
2019-05-01T18:55:45.130Z,14.43
2019-05-01T18:58:13.827Z,13.70
2019-05-01T19:00:43.056Z,14.57
2019-05-01T19:03:11.759Z,13.40
2019-05-01T19:05:43.230Z,13.77
2019-05-01T19:08:10.658Z,15.10
2019-05-01T19:10:39.210Z,15.90
2019-05-01T19:13:07.840Z,15.57
2019-05-01T19:15:36.392Z,13.43
2019-05-01T19:18:05.250Z,14.60
2019-05-01T19:20:33.996Z,15.23
2019-05-01T19:23:02.592Z,15.20
2019-05-01T19:25:31.148Z,15.13
2019-05-01T19:27:59.980Z,15.50
2019-05-01T19:30:28.905Z,15.43
2019-05-01T19:32:57.549Z,17.60
2019-05-01T19:35:29.571Z,15.60
2019-05-01T19:37:57.541Z,17.90
2019-05-01T19:40:30.551Z,16.57
2019-05-01T19:42:57.967Z,16.87
2019-05-01T19:45:26.933Z,16.50
2019-05-01T19:47:55.487Z,17.97
2019-05-01T19:50:24.067Z,16.40
2019-05-01T19:52:52.737Z,17.80
2019-05-01T19:55:21.321Z,17.63
2019-05-01T19:57:49.837Z,16.50
2019-05-01T20:00:23.181Z,16.47
2019-05-01T20:02:54.326Z,18.37
2019-05-01T20:05:26.827Z,17.70
2019-05-01T20:07:56.188Z,18.80
2019-05-01T20:10:22.491Z,17.10
2019-05-01T20:12:51.060Z,20.00
2019-05-01T20:15:19.877Z,19.87
2019-05-01T20:17:49.802Z,19.73
2019-05-01T20:20:18.359Z,20.37
2019-05-01T20:22:48.239Z,20.83
2019-05-01T20:25:19.303Z,23.40
2019-05-01T20:27:50.525Z,19.30
2019-05-01T20:30:17.590Z,20.93
2019-05-01T20:32:46.069Z,21.33
2019-05-01T20:35:14.657Z,21.37
2019-05-01T20:37:43.590Z,20.43
2019-05-01T20:40:12.353Z,21.23
2019-05-01T20:42:41.087Z,20.97
2019-05-01T20:45:17.705Z,21.23
2019-05-01T20:47:45.567Z,20.20
2019-05-01T20:50:13.588Z,20.43
2019-05-01T20:52:40.713Z,22.67
2019-05-01T20:55:09.343Z,22.40
2019-05-01T20:57:42.675Z,22.07
2019-05-01T21:00:16.728Z,22.30
2019-05-01T21:02:44.445Z,23.87
2019-05-01T21:05:32.670Z,21.53
2019-05-01T21:08:02.871Z,21.97
2019-05-01T21:10:50.480Z,21.23
2019-05-01T21:13:23.303Z,21.40
2019-05-01T21:15:48.742Z,21.93
2019-05-01T21:18:20.975Z,23.27
2019-05-01T21:20:47.486Z,22.77
2019-05-01T21:23:16.025Z,22.17
2019-05-01T21:25:44.519Z,42.60
2019-05-01T21:28:14.177Z,23.57
2019-05-01T21:30:43.995Z,23.40
2019-05-01T21:33:13.871Z,22.00
2019-05-01T21:35:44.431Z,21.47
2019-05-01T21:38:12.751Z,22.87
2019-05-01T21:40:43.519Z,23.47
2019-05-01T21:43:13.453Z,22.03
2019-05-01T21:45:43.351Z,24.03
2019-05-01T21:48:13.393Z,23.27
2019-05-01T21:50:43.864Z,21.40
2019-05-01T21:53:12.739Z,21.70
2019-05-01T21:55:41.554Z,23.30
2019-05-01T21:58:10.098Z,21.43
2019-05-01T22:00:40.521Z,23.87
2019-05-01T22:03:09.516Z,22.23
2019-05-01T22:05:39.682Z,24.23
2019-05-01T22:08:08.487Z,25.27
2019-05-01T22:10:36.988Z,24.37
2019-05-01T22:13:05.603Z,23.33
2019-05-01T22:15:35.816Z,23.37
2019-05-01T22:18:21.274Z,24.17
2019-05-01T22:20:51.478Z,24.13
2019-05-01T22:23:22.000Z,22.33
2019-05-01T22:25:53.289Z,23.20
2019-05-01T22:28:23.429Z,23.43
2019-05-01T22:31:10.143Z,23.37
2019-05-01T22:33:39.763Z,25.30
2019-05-01T22:36:08.307Z,23.60
2019-05-01T22:38:37.145Z,22.57
2019-05-01T22:41:10.053Z,23.90
2019-05-01T22:43:38.571Z,24.33
2019-05-01T22:46:08.825Z,24.90
2019-05-01T22:48:37.380Z,26.53
2019-05-01T22:51:07.733Z,26.50
2019-05-01T22:53:36.285Z,25.47
2019-05-01T22:56:04.824Z,25.70
2019-05-01T22:58:33.378Z,23.57
2019-05-01T23:01:01.929Z,23.97
2019-05-01T23:03:50.139Z,25.57
2019-05-01T23:06:18.748Z,24.27
2019-05-01T23:08:47.397Z,27.00
2019-05-01T23:11:20.269Z,25.40
2019-05-01T23:13:46.230Z,26.47
2019-05-01T23:16:15.642Z,25.43
2019-05-01T23:18:47.171Z,28.47
2019-05-01T23:21:15.963Z,26.83
2019-05-01T23:23:44.558Z,25.60
2019-05-01T23:26:16.554Z,26.63
2019-05-01T23:28:43.370Z,25.17
2019-05-01T23:31:11.916Z,25.73
2019-05-01T23:33:40.542Z,25.47
2019-05-01T23:36:09.090Z,24.87
2019-05-01T23:38:37.586Z,23.87
2019-05-01T23:41:06.134Z,25.50
2019-05-01T23:43:34.618Z,26.27
2019-05-01T23:46:03.088Z,26.77
2019-05-01T23:48:31.656Z,25.23
2019-05-01T23:51:00.291Z,26.07
2019-05-01T23:53:28.777Z,24.57
2019-05-01T23:56:00.052Z,24.73
2019-05-01T23:58:27.537Z,25.10
